sensor_id;sensor_type;location;lat;lon;timestamp;pressure;altitude;pressure_sealevel;temperature;humidity
63556;BME280;49700;48.072;7.800;2023-03-16T00:01:15;99864.75;;;4.72;64.55
63556;BME280;49700;48.072;7.800;2023-03-16T00:03:41;99870.38;;;4.59;64.52
63556;BME280;49700;48.072;7.800;2023-03-16T00:06:06;99865.50;;;4.50;64.95
63556;BME280;49700;48.072;7.800;2023-03-16T00:08:32;99872.84;;;4.37;64.63
63556;BME280;49700;48.072;7.800;2023-03-16T00:10:58;99867.13;;;4.28;64.99
63556;BME280;49700;48.072;7.800;2023-03-16T00:13:24;99867.34;;;4.21;65.24
63556;BME280;49700;48.072;7.800;2023-03-16T00:15:52;99876.03;;;4.20;65.55
63556;BME280;49700;48.072;7.800;2023-03-16T00:18:18;99878.69;;;4.19;65.31
63556;BME280;49700;48.072;7.800;2023-03-16T00:20:43;99870.81;;;4.20;65.32
63556;BME280;49700;48.072;7.800;2023-03-16T00:23:09;99871.53;;;4.26;65.19
63556;BME280;49700;48.072;7.800;2023-03-16T00:25:34;99873.91;;;4.32;64.90
63556;BME280;49700;48.072;7.800;2023-03-16T00:27:59;99881.56;;;4.36;64.79
63556;BME280;49700;48.072;7.800;2023-03-16T00:30:29;99883.22;;;4.39;65.05
63556;BME280;49700;48.072;7.800;2023-03-16T00:32:54;99884.81;;;4.43;65.20
63556;BME280;49700;48.072;7.800;2023-03-16T00:35:19;99871.75;;;4.44;64.95
63556;BME280;49700;48.072;7.800;2023-03-16T00:37:46;99883.81;;;4.47;64.54
63556;BME280;49700;48.072;7.800;2023-03-16T00:40:11;99873.50;;;4.44;64.68
63556;BME280;49700;48.072;7.800;2023-03-16T00:42:37;99871.97;;;4.38;64.97
63556;BME280;49700;48.072;7.800;2023-03-16T00:45:03;99870.47;;;4.31;64.92
63556;BME280;49700;48.072;7.800;2023-03-16T00:47:31;99869.84;;;4.25;65.21
63556;BME280;49700;48.072;7.800;2023-03-16T00:49:57;99862.03;;;4.25;65.46
63556;BME280;49700;48.072;7.800;2023-03-16T00:52:24;99859.44;;;4.25;65.41
63556;BME280;49700;48.072;7.800;2023-03-16T00:54:52;99859.44;;;4.25;65.14
63556;BME280;49700;48.072;7.800;2023-03-16T00:57:19;99851.69;;;4.23;65.30
63556;BME280;49700;48.072;7.800;2023-03-16T00:59:46;99855.22;;;4.20;65.00
63556;BME280;49700;48.072;7.800;2023-03-16T01:02:12;99856.13;;;4.19;65.07
63556;BME280;49700;48.072;7.800;2023-03-16T01:04:38;99853.47;;;4.21;65.54
63556;BME280;49700;48.072;7.800;2023-03-16T01:07:09;99859.53;;;4.21;65.52
63556;BME280;49700;48.072;7.800;2023-03-16T01:09:37;99854.41;;;4.18;65.46
63556;BME280;49700;48.072;7.800;2023-03-16T01:12:05;99847.53;;;4.17;65.38
63556;BME280;49700;48.072;7.800;2023-03-16T01:14:31;99855.41;;;4.16;65.15
63556;BME280;49700;48.072;7.800;2023-03-16T01:16:57;99847.66;;;4.14;65.14
63556;BME280;49700;48.072;7.800;2023-03-16T01:19:22;99849.31;;;4.15;65.05
63556;BME280;49700;48.072;7.800;2023-03-16T01:21:48;99843.28;;;4.15;65.31
63556;BME280;49700;48.072;7.800;2023-03-16T01:24:13;99836.50;;;4.11;65.09
63556;BME280;49700;48.072;7.800;2023-03-16T01:26:39;99841.78;;;4.08;65.25
63556;BME280;49700;48.072;7.800;2023-03-16T01:29:04;99831.50;;;4.05;65.21
63556;BME280;49700;48.072;7.800;2023-03-16T01:31:30;99837.63;;;4.02;65.23
63556;BME280;49700;48.072;7.800;2023-03-16T01:33:56;99830.16;;;3.93;65.20
63556;BME280;49700;48.072;7.800;2023-03-16T01:36:25;99829.66;;;3.82;65.90
63556;BME280;49700;48.072;7.800;2023-03-16T01:39:00;99839.44;;;3.73;65.65
63556;BME280;49700;48.072;7.800;2023-03-16T01:41:30;99845.69;;;3.68;65.88
63556;BME280;49700;48.072;7.800;2023-03-16T01:43:56;99836.41;;;3.59;66.09
63556;BME280;49700;48.072;7.800;2023-03-16T01:46:28;99834.03;;;3.53;66.10
63556;BME280;49700;48.072;7.800;2023-03-16T01:49:18;99831.66;;;3.45;66.53
63556;BME280;49700;48.072;7.800;2023-03-16T01:54:34;99817.41;;;3.30;66.52
63556;BME280;49700;48.072;7.800;2023-03-16T01:59:45;99831.22;;;3.32;66.61
63556;BME280;49700;48.072;7.800;2023-03-16T02:02:14;99827.69;;;3.33;66.65
63556;BME280;49700;48.072;7.800;2023-03-16T02:04:50;99834.69;;;3.31;66.69
63556;BME280;49700;48.072;7.800;2023-03-16T02:07:21;99827.06;;;3.27;66.57
63556;BME280;49700;48.072;7.800;2023-03-16T02:09:52;99827.22;;;3.21;66.82
63556;BME280;49700;48.072;7.800;2023-03-16T02:12:21;99817.00;;;3.16;66.59
63556;BME280;49700;48.072;7.800;2023-03-16T02:14:52;99828.31;;;3.14;66.83
63556;BME280;49700;48.072;7.800;2023-03-16T02:17:21;99835.31;;;3.10;66.72
63556;BME280;49700;48.072;7.800;2023-03-16T02:22:19;99825.03;;;3.07;66.99
63556;BME280;49700;48.072;7.800;2023-03-16T02:24:53;99825.00;;;3.08;66.72
63556;BME280;49700;48.072;7.800;2023-03-16T02:30:16;99812.81;;;3.10;66.69
63556;BME280;49700;48.072;7.800;2023-03-16T02:32:55;99806.84;;;3.08;66.74
63556;BME280;49700;48.072;7.800;2023-03-16T02:35:20;99812.06;;;3.07;66.86
63556;BME280;49700;48.072;7.800;2023-03-16T02:37:47;99803.53;;;3.03;67.13
63556;BME280;49700;48.072;7.800;2023-03-16T02:40:20;99806.22;;;3.00;67.17
63556;BME280;49700;48.072;7.800;2023-03-16T02:45:22;99805.41;;;2.98;67.21
63556;BME280;49700;48.072;7.800;2023-03-16T02:47:52;99802.00;;;2.96;66.98
63556;BME280;49700;48.072;7.800;2023-03-16T02:50:18;99789.97;;;2.94;67.20
63556;BME280;49700;48.072;7.800;2023-03-16T02:52:44;99786.53;;;2.93;67.06
63556;BME280;49700;48.072;7.800;2023-03-16T02:55:09;99784.75;;;2.95;67.17
63556;BME280;49700;48.072;7.800;2023-03-16T02:57:35;99777.66;;;3.00;66.95
63556;BME280;49700;48.072;7.800;2023-03-16T03:00:07;99787.13;;;3.01;66.53
63556;BME280;49700;48.072;7.800;2023-03-16T03:02:38;99781.91;;;3.03;67.02
63556;BME280;49700;48.072;7.800;2023-03-16T03:05:04;99780.16;;;3.03;66.83
63556;BME280;49700;48.072;7.800;2023-03-16T03:07:30;99776.72;;;3.03;66.60
63556;BME280;49700;48.072;7.800;2023-03-16T03:09:59;99776.81;;;3.00;66.88
63556;BME280;49700;48.072;7.800;2023-03-16T03:12:31;99770.72;;;3.01;66.56
63556;BME280;49700;48.072;7.800;2023-03-16T03:14:57;99778.50;;;3.01;66.64
63556;BME280;49700;48.072;7.800;2023-03-16T03:17:23;99775.91;;;3.01;66.63
63556;BME280;49700;48.072;7.800;2023-03-16T03:19:59;99775.09;;;2.99;66.51
63556;BME280;49700;48.072;7.800;2023-03-16T03:22:26;99763.88;;;2.98;67.04
63556;BME280;49700;48.072;7.800;2023-03-16T03:24:52;99766.47;;;2.98;66.98
63556;BME280;49700;48.072;7.800;2023-03-16T03:27:19;99762.13;;;2.99;66.76
63556;BME280;49700;48.072;7.800;2023-03-16T03:29:49;99760.38;;;2.99;66.61
63556;BME280;49700;48.072;7.800;2023-03-16T03:32:15;99759.50;;;3.00;66.66
63556;BME280;49700;48.072;7.800;2023-03-16T03:34:40;99767.31;;;2.99;66.75
63556;BME280;49700;48.072;7.800;2023-03-16T03:37:06;99762.13;;;2.99;66.53
63556;BME280;49700;48.072;7.800;2023-03-16T03:39:33;99766.56;;;2.95;66.40
63556;BME280;49700;48.072;7.800;2023-03-16T03:41:59;99766.59;;;2.94;66.50
63556;BME280;49700;48.072;7.800;2023-03-16T03:44:27;99763.16;;;2.93;66.83
63556;BME280;49700;48.072;7.800;2023-03-16T03:46:53;99756.28;;;2.92;66.44
63556;BME280;49700;48.072;7.800;2023-03-16T03:49:19;99762.34;;;2.91;66.81
63556;BME280;49700;48.072;7.800;2023-03-16T03:51:46;99765.00;;;2.90;66.86
63556;BME280;49700;48.072;7.800;2023-03-16T03:54:15;99756.41;;;2.87;66.72
63556;BME280;49700;48.072;7.800;2023-03-16T03:56:50;99748.66;;;2.86;66.68
63556;BME280;49700;48.072;7.800;2023-03-16T03:59:16;99754.78;;;2.83;66.93
63556;BME280;49700;48.072;7.800;2023-03-16T04:02:05;99751.66;;;2.72;67.04
63556;BME280;49700;48.072;7.800;2023-03-16T04:04:41;99753.72;;;2.61;67.19
63556;BME280;49700;48.072;7.800;2023-03-16T04:07:09;99756.44;;;2.56;67.28
63556;BME280;49700;48.072;7.800;2023-03-16T04:09:35;99766.03;;;2.54;67.64
63556;BME280;49700;48.072;7.800;2023-03-16T04:12:21;99762.56;;;2.54;67.37
63556;BME280;49700;48.072;7.800;2023-03-16T04:14:47;99773.81;;;2.54;67.48
63556;BME280;49700;48.072;7.800;2023-03-16T04:17:14;99761.63;;;2.56;67.54
63556;BME280;49700;48.072;7.800;2023-03-16T04:19:40;99764.19;;;2.58;67.46
63556;BME280;49700;48.072;7.800;2023-03-16T04:22:10;99759.81;;;2.60;67.32
63556;BME280;49700;48.072;7.800;2023-03-16T04:24:37;99759.81;;;2.60;67.59
63556;BME280;49700;48.072;7.800;2023-03-16T04:27:03;99769.38;;;2.58;67.59
63556;BME280;49700;48.072;7.800;2023-03-16T04:29:28;99764.31;;;2.53;67.64
63556;BME280;49700;48.072;7.800;2023-03-16T04:31:56;99766.25;;;2.47;67.65
63556;BME280;49700;48.072;7.800;2023-03-16T04:34:23;99760.28;;;2.43;67.76
63556;BME280;49700;48.072;7.800;2023-03-16T04:36:51;99759.44;;;2.42;68.03
63556;BME280;49700;48.072;7.800;2023-03-16T04:39:21;99761.16;;;2.43;68.03
63556;BME280;49700;48.072;7.800;2023-03-16T04:41:47;99762.00;;;2.44;67.54
63556;BME280;49700;48.072;7.800;2023-03-16T04:44:18;99757.66;;;2.44;67.67
63556;BME280;49700;48.072;7.800;2023-03-16T04:46:43;99747.28;;;2.44;67.70
63556;BME280;49700;48.072;7.800;2023-03-16T04:49:10;99751.63;;;2.44;67.53
63556;BME280;49700;48.072;7.800;2023-03-16T04:51:37;99753.31;;;2.45;67.74
63556;BME280;49700;48.072;7.800;2023-03-16T04:54:07;99744.66;;;2.46;67.77
63556;BME280;49700;48.072;7.800;2023-03-16T04:56:35;99736.88;;;2.46;67.87
63556;BME280;49700;48.072;7.800;2023-03-16T04:59:05;99744.59;;;2.48;67.79
63556;BME280;49700;48.072;7.800;2023-03-16T05:01:40;99749.75;;;2.49;67.83
63556;BME280;49700;48.072;7.800;2023-03-16T05:04:07;99742.84;;;2.48;67.63
63556;BME280;49700;48.072;7.800;2023-03-16T05:06:36;99742.94;;;2.45;67.87
63556;BME280;49700;48.072;7.800;2023-03-16T05:09:01;99736.94;;;2.43;67.65
63556;BME280;49700;48.072;7.800;2023-03-16T05:11:32;99737.91;;;2.40;67.85
63556;BME280;49700;48.072;7.800;2023-03-16T05:14:00;99732.78;;;2.37;67.82
63556;BME280;49700;48.072;7.800;2023-03-16T05:16:32;99728.50;;;2.36;68.06
63556;BME280;49700;48.072;7.800;2023-03-16T05:18:58;99728.50;;;2.36;67.87
63556;BME280;49700;48.072;7.800;2023-03-16T05:21:26;99721.63;;;2.35;68.06
63556;BME280;49700;48.072;7.800;2023-03-16T05:24:00;99720.72;;;2.36;68.09
63556;BME280;49700;48.072;7.800;2023-03-16T05:26:25;99725.91;;;2.36;68.07
63556;BME280;49700;48.072;7.800;2023-03-16T05:28:51;99727.66;;;2.36;68.05
63556;BME280;49700;48.072;7.800;2023-03-16T05:31:20;99727.66;;;2.36;68.19
63556;BME280;49700;48.072;7.800;2023-03-16T05:33:51;99718.97;;;2.37;68.04
63556;BME280;49700;48.072;7.800;2023-03-16T05:36:19;99728.50;;;2.36;67.82
63556;BME280;49700;48.072;7.800;2023-03-16T05:38:47;99725.09;;;2.34;67.92
63556;BME280;49700;48.072;7.800;2023-03-16T05:41:22;99736.50;;;2.29;68.21
63556;BME280;49700;48.072;7.800;2023-03-16T05:44:08;99740.19;;;2.20;68.65
63556;BME280;49700;48.072;7.800;2023-03-16T05:46:49;99747.31;;;2.12;68.80
63556;BME280;49700;48.072;7.800;2023-03-16T05:49:15;99744.00;;;2.07;68.51
63556;BME280;49700;48.072;7.800;2023-03-16T05:51:41;99745.78;;;2.05;68.87
63556;BME280;49700;48.072;7.800;2023-03-16T05:54:07;99749.16;;;2.08;68.64
63556;BME280;49700;48.072;7.800;2023-03-16T05:56:41;99746.47;;;2.11;68.56
63556;BME280;49700;48.072;7.800;2023-03-16T05:59:07;99740.31;;;2.15;68.83
63556;BME280;49700;48.072;7.800;2023-03-16T06:01:33;99750.47;;;2.23;68.28
63556;BME280;49700;48.072;7.800;2023-03-16T06:03:59;99749.44;;;2.29;68.22
63556;BME280;49700;48.072;7.800;2023-03-16T06:06:27;99747.66;;;2.32;68.26
63556;BME280;49700;48.072;7.800;2023-03-16T06:08:59;99745.84;;;2.34;68.12
63556;BME280;49700;48.072;7.800;2023-03-16T06:11:26;99744.91;;;2.37;68.01
63556;BME280;49700;48.072;7.800;2023-03-16T06:13:51;99749.25;;;2.36;68.47
63556;BME280;49700;48.072;7.800;2023-03-16T06:16:17;99755.34;;;2.35;68.52
63556;BME280;49700;48.072;7.800;2023-03-16T06:18:43;99755.25;;;2.38;68.48
63556;BME280;49700;48.072;7.800;2023-03-16T06:21:09;99748.09;;;2.47;68.40
63556;BME280;49700;48.072;7.800;2023-03-16T06:23:35;99748.00;;;2.50;68.18
63556;BME280;49700;48.072;7.800;2023-03-16T06:26:02;99740.94;;;2.55;68.25
63556;BME280;49700;48.072;7.800;2023-03-16T06:28:30;99743.38;;;2.61;68.21
63556;BME280;49700;48.072;7.800;2023-03-16T06:30:56;99747.41;;;2.70;67.98
63556;BME280;49700;48.072;7.800;2023-03-16T06:33:25;99756.59;;;2.81;67.79
63556;BME280;49700;48.072;7.800;2023-03-16T06:35:50;99750.22;;;2.92;67.96
63556;BME280;49700;48.072;7.800;2023-03-16T06:38:25;99756.84;;;3.02;67.86
63556;BME280;49700;48.072;7.800;2023-03-16T06:41:17;99760.75;;;3.15;67.80
63556;BME280;49700;48.072;7.800;2023-03-16T06:43:44;99762.19;;;3.25;67.38
63556;BME280;49700;48.072;7.800;2023-03-16T06:46:11;99760.19;;;3.33;67.27
63556;BME280;49700;48.072;7.800;2023-03-16T06:48:37;99753.84;;;3.42;66.99
63556;BME280;49700;48.072;7.800;2023-03-16T06:51:03;99766.66;;;3.48;66.68
63556;BME280;49700;48.072;7.800;2023-03-16T06:53:29;99766.47;;;3.54;66.56
63556;BME280;49700;48.072;7.800;2023-03-16T06:55:55;99762.72;;;3.63;66.26
63556;BME280;49700;48.072;7.800;2023-03-16T06:58:21;99760.66;;;3.73;66.16
63556;BME280;49700;48.072;7.800;2023-03-16T07:00:46;99755.16;;;3.82;65.82
63556;BME280;49700;48.072;7.800;2023-03-16T07:03:12;99741.91;;;3.90;65.75
63556;BME280;49700;48.072;7.800;2023-03-16T07:05:42;99735.66;;;3.95;65.71
63556;BME280;49700;48.072;7.800;2023-03-16T07:08:07;99738.13;;;3.98;65.58
63556;BME280;49700;48.072;7.800;2023-03-16T07:10:34;99721.47;;;4.04;65.25
63556;BME280;49700;48.072;7.800;2023-03-16T07:13:00;99725.50;;;4.13;64.90
63556;BME280;49700;48.072;7.800;2023-03-16T07:15:25;99725.03;;;4.27;64.99
63556;BME280;49700;48.072;7.800;2023-03-16T07:17:53;99720.16;;;4.41;64.64
63556;BME280;49700;48.072;7.800;2023-03-16T07:20:19;99707.50;;;4.55;64.31
63556;BME280;49700;48.072;7.800;2023-03-16T07:22:45;99701.84;;;4.68;63.78
63556;BME280;49700;48.072;7.800;2023-03-16T07:25:12;99704.09;;;4.77;63.45
63556;BME280;49700;48.072;7.800;2023-03-16T07:27:42;99705.56;;;4.84;63.02
63556;BME280;49700;48.072;7.800;2023-03-16T07:30:11;99707.00;;;4.91;63.18
63556;BME280;49700;48.072;7.800;2023-03-16T07:32:40;99686.72;;;4.99;62.70
63556;BME280;49700;48.072;7.800;2023-03-16T07:35:07;99682.94;;;5.08;62.83
63556;BME280;49700;48.072;7.800;2023-03-16T07:37:32;99666.22;;;5.14;62.70
63556;BME280;49700;48.072;7.800;2023-03-16T07:40:00;99679.09;;;5.17;62.20
63556;BME280;49700;48.072;7.800;2023-03-16T07:42:26;99684.22;;;5.18;62.22
63556;BME280;49700;48.072;7.800;2023-03-16T07:45:04;99696.28;;;5.21;62.07
63556;BME280;49700;48.072;7.800;2023-03-16T07:47:30;99696.19;;;5.24;62.07
63556;BME280;49700;48.072;7.800;2023-03-16T07:49:59;99704.75;;;5.26;61.99
63556;BME280;49700;48.072;7.800;2023-03-16T07:52:26;99706.34;;;5.30;62.13
63556;BME280;49700;48.072;7.800;2023-03-16T07:54:53;99695.66;;;5.36;62.16
63556;BME280;49700;48.072;7.800;2023-03-16T07:57:18;99686.56;;;5.46;61.94
63556;BME280;49700;48.072;7.800;2023-03-16T07:59:45;99680.19;;;5.53;62.30
63556;BME280;49700;48.072;7.800;2023-03-16T08:02:16;99678.44;;;5.54;62.01
63556;BME280;49700;48.072;7.800;2023-03-16T08:04:43;99675.53;;;5.62;61.65
63556;BME280;49700;48.072;7.800;2023-03-16T08:07:10;99682.66;;;5.77;61.65
63556;BME280;49700;48.072;7.800;2023-03-16T08:09:52;99682.03;;;6.32;60.78
63556;BME280;49700;48.072;7.800;2023-03-16T08:12:23;99676.88;;;7.06;59.10
63556;BME280;49700;48.072;7.800;2023-03-16T08:14:48;99670.22;;;7.87;57.48
63556;BME280;49700;48.072;7.800;2023-03-16T08:17:18;99678.50;;;8.62;55.38
63556;BME280;49700;48.072;7.800;2023-03-16T08:19:47;99679.28;;;9.26;53.71
63556;BME280;49700;48.072;7.800;2023-03-16T08:22:13;99663.44;;;9.88;52.44
63556;BME280;49700;48.072;7.800;2023-03-16T08:24:42;99654.41;;;10.51;51.13
63556;BME280;49700;48.072;7.800;2023-03-16T08:27:10;99656.28;;;10.90;50.16
63556;BME280;49700;48.072;7.800;2023-03-16T08:29:39;99651.22;;;11.14;49.49
63556;BME280;49700;48.072;7.800;2023-03-16T08:32:06;99663.19;;;11.45;48.62
63556;BME280;49700;48.072;7.800;2023-03-16T08:34:37;99662.31;;;11.72;47.20
63556;BME280;49700;48.072;7.800;2023-03-16T08:37:04;99665.59;;;12.01;46.45
63556;BME280;49700;48.072;7.800;2023-03-16T08:39:31;99680.22;;;12.31;45.65
63556;BME280;49700;48.072;7.800;2023-03-16T08:41:58;99670.28;;;12.47;45.02
63556;BME280;49700;48.072;7.800;2023-03-16T08:44:37;99664.38;;;12.56;44.79
63556;BME280;49700;48.072;7.800;2023-03-16T08:47:02;99656.69;;;12.90;44.26
63556;BME280;49700;48.072;7.800;2023-03-16T08:49:29;99658.03;;;13.44;43.35
63556;BME280;49700;48.072;7.800;2023-03-16T08:52:02;99648.44;;;13.89;42.30
63556;BME280;49700;48.072;7.800;2023-03-16T08:54:27;99642.69;;;13.84;41.87
63556;BME280;49700;48.072;7.800;2023-03-16T08:56:53;99638.88;;;14.00;41.61
63556;BME280;49700;48.072;7.800;2023-03-16T08:59:19;99630.09;;;14.44;40.59
63556;BME280;49700;48.072;7.800;2023-03-16T09:01:44;99628.94;;;14.92;39.52
63556;BME280;49700;48.072;7.800;2023-03-16T09:04:09;99620.25;;;15.33;37.43
63556;BME280;49700;48.072;7.800;2023-03-16T09:06:37;99605.84;;;15.68;36.77
63556;BME280;49700;48.072;7.800;2023-03-16T09:09:03;99598.03;;;15.87;36.54
63556;BME280;49700;48.072;7.800;2023-03-16T09:11:28;99591.91;;;15.87;36.45
63556;BME280;49700;48.072;7.800;2023-03-16T09:13:58;99589.09;;;15.79;36.54
63556;BME280;49700;48.072;7.800;2023-03-16T09:16:24;99595.63;;;15.75;36.59
63556;BME280;49700;48.072;7.800;2023-03-16T09:18:51;99602.31;;;15.58;37.00
63556;BME280;49700;48.072;7.800;2023-03-16T09:21:16;99608.47;;;15.58;36.70
63556;BME280;49700;48.072;7.800;2023-03-16T09:23:42;99587.13;;;15.39;36.30
63556;BME280;49700;48.072;7.800;2023-03-16T09:26:08;99577.38;;;15.18;36.57
63556;BME280;49700;48.072;7.800;2023-03-16T09:28:35;99578.81;;;14.90;36.86
63556;BME280;49700;48.072;7.800;2023-03-16T09:31:03;99578.78;;;14.58;37.24
63556;BME280;49700;48.072;7.800;2023-03-16T09:33:29;99586.25;;;14.30;37.26
63556;BME280;49700;48.072;7.800;2023-03-16T09:35:56;99579.91;;;14.10;37.56
63556;BME280;49700;48.072;7.800;2023-03-16T09:38:23;99579.94;;;13.99;38.03
63556;BME280;49700;48.072;7.800;2023-03-16T09:41:30;99595.06;;;13.97;38.24
63556;BME280;49700;48.072;7.800;2023-03-16T09:47:03;99591.28;;;13.66;38.58
63556;BME280;49700;48.072;7.800;2023-03-16T09:49:36;99586.97;;;13.54;38.90
63556;BME280;49700;48.072;7.800;2023-03-16T09:54:48;99583.78;;;13.26;39.44
63556;BME280;49700;48.072;7.800;2023-03-16T09:57:27;99577.53;;;13.03;39.79
63556;BME280;49700;48.072;7.800;2023-03-16T10:00:21;99566.94;;;12.92;39.79
63556;BME280;49700;48.072;7.800;2023-03-16T10:05:47;99567.81;;;13.03;39.62
63556;BME280;49700;48.072;7.800;2023-03-16T10:08:22;99560.56;;;13.18;39.33
63556;BME280;49700;48.072;7.800;2023-03-16T10:11:04;99550.69;;;13.33;39.34
63556;BME280;49700;48.072;7.800;2023-03-16T10:16:30;99549.53;;;13.13;39.85
63556;BME280;49700;48.072;7.800;2023-03-16T10:19:09;99554.63;;;13.03;40.39
63556;BME280;49700;48.072;7.800;2023-03-16T10:21:39;99555.22;;;12.96;40.56
63556;BME280;49700;48.072;7.800;2023-03-16T10:24:38;99565.38;;;12.89;40.64
63556;BME280;49700;48.072;7.800;2023-03-16T10:27:19;99557.44;;;12.78;40.92
63556;BME280;49700;48.072;7.800;2023-03-16T10:29:47;99555.34;;;12.70;40.90
63556;BME280;49700;48.072;7.800;2023-03-16T10:32:15;99552.59;;;12.72;40.81
63556;BME280;49700;48.072;7.800;2023-03-16T10:34:46;99541.88;;;12.86;40.02
63556;BME280;49700;48.072;7.800;2023-03-16T10:37:13;99553.03;;;12.90;39.99
63556;BME280;49700;48.072;7.800;2023-03-16T10:39:38;99540.25;;;12.96;39.68
63556;BME280;49700;48.072;7.800;2023-03-16T10:42:15;99539.72;;;13.15;39.62
63556;BME280;49700;48.072;7.800;2023-03-16T10:44:41;99535.59;;;13.35;39.43
63556;BME280;49700;48.072;7.800;2023-03-16T10:47:07;99535.25;;;13.51;39.30
63556;BME280;49700;48.072;7.800;2023-03-16T10:49:37;99538.16;;;13.59;39.30
63556;BME280;49700;48.072;7.800;2023-03-16T10:52:13;99537.56;;;13.67;39.16
63556;BME280;49700;48.072;7.800;2023-03-16T10:54:55;99538.63;;;13.76;39.39
63556;BME280;49700;48.072;7.800;2023-03-16T10:57:32;99539.34;;;13.89;39.32
63556;BME280;49700;48.072;7.800;2023-03-16T11:02:36;99532.63;;;14.07;39.31
63556;BME280;49700;48.072;7.800;2023-03-16T11:05:24;99534.03;;;14.11;39.45
63556;BME280;49700;48.072;7.800;2023-03-16T11:07:58;99526.00;;;14.13;39.34
63556;BME280;49700;48.072;7.800;2023-03-16T11:10:33;99511.34;;;14.09;39.27
63556;BME280;49700;48.072;7.800;2023-03-16T11:13:18;99517.03;;;14.04;39.47
63556;BME280;49700;48.072;7.800;2023-03-16T11:18:27;99522.44;;;13.91;39.83
63556;BME280;49700;48.072;7.800;2023-03-16T11:20:54;99529.97;;;13.85;39.76
63556;BME280;49700;48.072;7.800;2023-03-16T11:23:28;99518.34;;;13.76;39.78
63556;BME280;49700;48.072;7.800;2023-03-16T11:25:57;99517.75;;;13.72;39.98
63556;BME280;49700;48.072;7.800;2023-03-16T11:28:37;99520.16;;;13.76;39.73
63556;BME280;49700;48.072;7.800;2023-03-16T11:31:23;99517.50;;;13.76;40.00
63556;BME280;49700;48.072;7.800;2023-03-16T11:33:51;99521.72;;;13.78;40.14
63556;BME280;49700;48.072;7.800;2023-03-16T11:39:05;99500.00;;;13.75;39.65
63556;BME280;49700;48.072;7.800;2023-03-16T11:41:49;99505.41;;;13.62;40.10
63556;BME280;49700;48.072;7.800;2023-03-16T11:44:41;99497.81;;;13.57;40.25
63556;BME280;49700;48.072;7.800;2023-03-16T11:53:37;99495.19;;;13.46;40.72
63556;BME280;49700;48.072;7.800;2023-03-16T12:04:44;99482.13;;;13.67;39.52
63556;BME280;49700;48.072;7.800;2023-03-16T12:07:49;99479.09;;;13.71;39.40
63556;BME280;49700;48.072;7.800;2023-03-16T12:10:28;99466.75;;;13.83;39.31
63556;BME280;49700;48.072;7.800;2023-03-16T12:13:11;99468.91;;;13.89;39.05
63556;BME280;49700;48.072;7.800;2023-03-16T12:15:42;99463.25;;;13.94;38.74
63556;BME280;49700;48.072;7.800;2023-03-16T12:18:37;99454.25;;;13.97;38.12
63556;BME280;49700;48.072;7.800;2023-03-16T12:21:09;99461.09;;;13.99;38.13
63556;BME280;49700;48.072;7.800;2023-03-16T12:24:04;99451.88;;;13.93;37.80
63556;BME280;49700;48.072;7.800;2023-03-16T12:26:38;99460.47;;;13.95;37.86
63556;BME280;49700;48.072;7.800;2023-03-16T12:31:57;99452.47;;;13.86;38.02
63556;BME280;49700;48.072;7.800;2023-03-16T12:34:48;99447.31;;;13.84;38.08
63556;BME280;49700;48.072;7.800;2023-03-16T12:42:59;99435.50;;;14.11;38.59
63556;BME280;49700;48.072;7.800;2023-03-16T12:50:47;99429.34;;;14.22;37.65
63556;BME280;49700;48.072;7.800;2023-03-16T12:53:27;99431.88;;;14.23;37.44
63556;BME280;49700;48.072;7.800;2023-03-16T12:56:05;99428.59;;;14.20;37.88
63556;BME280;49700;48.072;7.800;2023-03-16T12:58:33;99427.78;;;14.19;38.15
63556;BME280;49700;48.072;7.800;2023-03-16T13:00:58;99425.84;;;14.21;38.21
63556;BME280;49700;48.072;7.800;2023-03-16T13:03:25;99430.88;;;14.24;37.84
63556;BME280;49700;48.072;7.800;2023-03-16T13:05:54;99427.28;;;14.25;38.11
63556;BME280;49700;48.072;7.800;2023-03-16T13:08:21;99418.88;;;14.31;38.05
63556;BME280;49700;48.072;7.800;2023-03-16T13:11:08;99410.78;;;14.33;37.54
63556;BME280;49700;48.072;7.800;2023-03-16T13:13:34;99403.00;;;14.31;37.61
63556;BME280;49700;48.072;7.800;2023-03-16T13:16:22;99400.09;;;14.34;37.50
63556;BME280;49700;48.072;7.800;2023-03-16T13:18:48;99398.03;;;14.38;37.46
63556;BME280;49700;48.072;7.800;2023-03-16T13:21:33;99390.22;;;14.36;37.41
63556;BME280;49700;48.072;7.800;2023-03-16T13:26:46;99390.00;;;14.39;37.38
63556;BME280;49700;48.072;7.800;2023-03-16T13:29:24;99387.09;;;14.43;37.44
63556;BME280;49700;48.072;7.800;2023-03-16T13:31:52;99386.69;;;14.47;37.37
63556;BME280;49700;48.072;7.800;2023-03-16T13:34:24;99375.03;;;14.50;37.41
63556;BME280;49700;48.072;7.800;2023-03-16T13:36:55;99377.22;;;14.56;37.19
63556;BME280;49700;48.072;7.800;2023-03-16T13:39:26;99369.59;;;14.63;36.94
63556;BME280;49700;48.072;7.800;2023-03-16T13:44:24;99367.22;;;14.80;37.15
63556;BME280;49700;48.072;7.800;2023-03-16T13:46:50;99369.19;;;14.88;36.77
63556;BME280;49700;48.072;7.800;2023-03-16T13:49:17;99370.22;;;14.97;36.55
63556;BME280;49700;48.072;7.800;2023-03-16T13:51:43;99367.44;;;14.98;36.60
63556;BME280;49700;48.072;7.800;2023-03-16T13:54:20;99364.41;;;15.03;36.60
63556;BME280;49700;48.072;7.800;2023-03-16T13:56:48;99354.00;;;15.11;36.40
63556;BME280;49700;48.072;7.800;2023-03-16T13:59:14;99347.47;;;15.15;36.40
63556;BME280;49700;48.072;7.800;2023-03-16T14:01:43;99342.75;;;15.19;36.21
63556;BME280;49700;48.072;7.800;2023-03-16T14:04:11;99342.19;;;15.25;36.22
63556;BME280;49700;48.072;7.800;2023-03-16T14:06:38;99334.44;;;15.33;35.89
63556;BME280;49700;48.072;7.800;2023-03-16T14:09:12;99318.88;;;15.40;35.94
63556;BME280;49700;48.072;7.800;2023-03-16T14:11:39;99324.44;;;15.46;36.02
63556;BME280;49700;48.072;7.800;2023-03-16T14:14:23;99321.41;;;15.51;35.98
63556;BME280;49700;48.072;7.800;2023-03-16T14:16:50;99319.56;;;15.52;36.13
63556;BME280;49700;48.072;7.800;2023-03-16T14:19:20;99311.78;;;15.50;36.17
63556;BME280;49700;48.072;7.800;2023-03-16T14:21:49;99321.25;;;15.53;36.08
63556;BME280;49700;48.072;7.800;2023-03-16T14:24:28;99322.38;;;15.60;36.44
63556;BME280;49700;48.072;7.800;2023-03-16T14:26:55;99317.38;;;15.66;36.50
63556;BME280;49700;48.072;7.800;2023-03-16T14:29:26;99322.16;;;15.73;36.54